createdAt,value
2019-02-10T00:01:42.655Z,19.20
2019-02-10T00:04:11.539Z,20.60
2019-02-10T00:06:40.371Z,20.80
2019-02-10T00:09:09.327Z,19.20
2019-02-10T00:11:38.123Z,20.00
2019-02-10T00:14:07.071Z,19.80
2019-02-10T00:16:35.837Z,18.70
2019-02-10T00:19:04.804Z,20.17
2019-02-10T00:21:33.692Z,20.40
2019-02-10T00:24:03.118Z,20.90
2019-02-10T00:26:31.968Z,19.80
2019-02-10T00:29:00.911Z,19.50
2019-02-10T00:31:29.938Z,19.50
2019-02-10T00:33:59.207Z,19.80
2019-02-10T00:36:33.267Z,20.13
2019-02-10T00:38:59.008Z,19.60
2019-02-10T00:41:28.008Z,19.43
2019-02-10T00:43:56.912Z,19.43
2019-02-10T00:46:25.716Z,19.23
2019-02-10T00:48:54.879Z,19.07
2019-02-10T00:51:23.835Z,19.97
2019-02-10T00:53:53.062Z,20.40
2019-02-10T00:56:21.852Z,20.50
2019-02-10T00:58:50.799Z,20.03
2019-02-10T01:01:19.609Z,19.00
2019-02-10T01:03:48.363Z,19.70
2019-02-10T01:06:17.283Z,20.17
2019-02-10T01:08:46.623Z,20.30
2019-02-10T01:11:15.450Z,20.60
2019-02-10T01:13:44.330Z,20.40
2019-02-10T01:16:13.145Z,19.90
2019-02-10T01:19:05.599Z,20.47
2019-02-10T01:21:34.477Z,20.57
2019-02-10T01:24:03.380Z,19.90
2019-02-10T01:26:32.572Z,19.87
2019-02-10T01:29:04.026Z,19.20
2019-02-10T01:31:33.916Z,19.40
2019-02-10T01:34:03.050Z,19.67
2019-02-10T01:36:32.364Z,20.30
2019-02-10T01:39:01.222Z,20.27
2019-02-10T01:41:30.112Z,20.27
2019-02-10T01:43:59.430Z,21.10
2019-02-10T01:46:28.476Z,19.00
2019-02-10T01:49:00.864Z,19.80
2019-02-10T01:51:29.629Z,18.97
2019-02-10T01:53:58.448Z,19.70
2019-02-10T01:56:27.227Z,19.17
2019-02-10T01:58:56.440Z,19.90
2019-02-10T02:01:25.404Z,19.10
2019-02-10T02:03:54.406Z,19.30
2019-02-10T02:06:23.530Z,19.20
2019-02-10T02:08:52.386Z,19.30
2019-02-10T02:11:21.200Z,19.23
2019-02-10T02:13:50.219Z,19.20
2019-02-10T02:16:19.137Z,18.80
2019-02-10T02:18:48.091Z,20.77
2019-02-10T02:21:17.135Z,19.27
2019-02-10T02:23:45.954Z,18.40
2019-02-10T02:26:14.909Z,19.77
2019-02-10T02:28:43.727Z,19.07
2019-02-10T02:31:12.487Z,19.87
2019-02-10T02:33:41.303Z,19.20
2019-02-10T02:36:10.150Z,19.67
2019-02-10T02:38:38.951Z,21.27
2019-02-10T02:41:07.886Z,20.20
2019-02-10T02:43:36.677Z,19.70
2019-02-10T02:46:05.983Z,20.10
2019-02-10T02:48:34.769Z,20.40
2019-02-10T02:51:04.377Z,20.40
2019-02-10T02:53:33.571Z,19.70
2019-02-10T02:56:02.429Z,20.67
2019-02-10T02:58:31.579Z,20.30
2019-02-10T03:01:00.436Z,20.77
2019-02-10T03:03:29.369Z,19.60
2019-02-10T03:05:58.179Z,19.57
2019-02-10T03:08:27.064Z,20.27
2019-02-10T03:10:55.912Z,19.63
2019-02-10T03:13:25.453Z,20.13
2019-02-10T03:15:54.350Z,19.03
2019-02-10T03:18:23.239Z,20.23
2019-02-10T03:20:52.054Z,20.17
2019-02-10T03:23:20.931Z,19.30
2019-02-10T03:25:50.003Z,20.00
2019-02-10T03:28:18.786Z,19.97
2019-02-10T03:30:47.968Z,19.40
2019-02-10T03:33:16.977Z,20.50
2019-02-10T03:35:46.075Z,19.90
2019-02-10T03:38:14.974Z,21.00
2019-02-10T03:40:44.208Z,20.20
2019-02-10T03:43:13.038Z,21.30
2019-02-10T03:45:42.348Z,19.70
2019-02-10T03:48:12.353Z,20.20
2019-02-10T03:50:41.686Z,20.80
2019-02-10T03:53:10.715Z,20.40
2019-02-10T03:55:39.497Z,20.60
2019-02-10T03:58:08.938Z,21.03
2019-02-10T04:00:38.599Z,20.40
2019-02-10T04:03:07.465Z,20.73
2019-02-10T04:05:36.249Z,20.07
2019-02-10T04:08:05.511Z,21.53
2019-02-10T04:10:34.669Z,20.17
2019-02-10T04:13:03.508Z,21.17
2019-02-10T04:15:32.412Z,20.60
2019-02-10T04:18:01.199Z,19.23
2019-02-10T04:20:30.112Z,20.33
2019-02-10T04:22:58.901Z,20.47
2019-02-10T04:25:27.785Z,20.53
2019-02-10T04:27:56.696Z,20.10
2019-02-10T04:30:25.738Z,19.93
2019-02-10T04:32:55.329Z,20.47
2019-02-10T04:35:25.213Z,22.00
2019-02-10T04:37:54.534Z,20.67
2019-02-10T04:40:23.397Z,21.50
2019-02-10T04:42:52.174Z,21.93
2019-02-10T04:45:21.123Z,20.70
2019-02-10T04:47:50.064Z,21.27
2019-02-10T04:50:18.990Z,21.10
2019-02-10T04:52:48.101Z,20.90
2019-02-10T04:55:17.360Z,21.40
2019-02-10T04:57:47.151Z,21.33
2019-02-10T05:00:16.374Z,20.27
2019-02-10T05:02:45.816Z,20.37
2019-02-10T05:05:14.751Z,21.80
2019-02-10T05:07:43.602Z,21.20
2019-02-10T05:10:12.436Z,21.23
2019-02-10T05:12:41.703Z,20.80
2019-02-10T05:15:10.769Z,21.20
2019-02-10T05:17:40.084Z,20.50
2019-02-10T05:20:09.981Z,21.33
2019-02-10T05:22:39.427Z,21.57
2019-02-10T05:25:08.644Z,21.40
2019-02-10T05:27:37.510Z,21.07
2019-02-10T05:30:06.736Z,20.90
2019-02-10T05:32:35.774Z,20.47
2019-02-10T05:35:04.675Z,20.40
2019-02-10T05:37:33.772Z,20.67
2019-02-10T05:40:02.823Z,19.87
2019-02-10T05:42:31.681Z,20.37
2019-02-10T05:45:00.779Z,20.20
2019-02-10T05:47:29.702Z,20.20
2019-02-10T05:49:58.447Z,20.23
2019-02-10T05:52:27.339Z,19.53
2019-02-10T05:54:56.146Z,20.30
2019-02-10T05:57:25.224Z,19.03
2019-02-10T05:59:54.167Z,19.20
2019-02-10T06:02:30.603Z,18.00
2019-02-10T06:05:02.786Z,19.23
2019-02-10T06:07:32.002Z,18.53
2019-02-10T06:10:01.060Z,19.03
2019-02-10T06:12:29.943Z,20.73
2019-02-10T06:14:58.887Z,18.13
2019-02-10T06:17:27.633Z,18.27
2019-02-10T06:19:56.488Z,17.60
2019-02-10T06:22:25.649Z,17.80
2019-02-10T06:24:54.747Z,17.07
2019-02-10T06:27:23.892Z,16.90
2019-02-10T06:29:53.072Z,17.80
2019-02-10T06:32:21.883Z,17.10
2019-02-10T06:34:50.698Z,16.83
2019-02-10T06:37:19.663Z,17.93
2019-02-10T06:39:48.497Z,17.00
2019-02-10T06:42:18.076Z,17.20
2019-02-10T06:44:47.046Z,17.30
2019-02-10T06:47:16.170Z,16.70
2019-02-10T06:49:45.134Z,17.07
2019-02-10T06:52:14.046Z,16.60
2019-02-10T06:55:02.491Z,16.77
2019-02-10T06:57:31.851Z,17.20
2019-02-10T07:00:11.003Z,17.27
2019-02-10T07:03:20.413Z,17.30
2019-02-10T07:05:49.171Z,16.67
2019-02-10T07:08:18.008Z,17.40
2019-02-10T07:10:46.832Z,17.73
2019-02-10T07:13:29.126Z,17.80
2019-02-10T07:16:34.307Z,17.20
2019-02-10T07:19:49.410Z,17.43
2019-02-10T07:23:01.493Z,16.77
2019-02-10T07:26:07.573Z,18.40
2019-02-10T07:28:51.533Z,17.13
2019-02-10T07:31:26.003Z,17.50
2019-02-10T07:34:22.822Z,18.90
2019-02-10T07:37:33.608Z,17.83
2019-02-10T07:40:28.211Z,19.37
2019-02-10T07:43:31.792Z,18.93
2019-02-10T07:46:43.384Z,17.90
2019-02-10T07:49:43.763Z,19.60
2019-02-10T07:52:50.246Z,18.80
2019-02-10T07:55:41.423Z,19.00
2019-02-10T07:59:09.031Z,19.77
2019-02-10T08:02:31.022Z,19.63
2019-02-10T08:05:21.486Z,20.80
2019-02-10T08:08:03.663Z,21.20
2019-02-10T08:11:24.063Z,20.97
2019-02-10T08:14:07.020Z,22.37
2019-02-10T08:17:01.140Z,22.23
2019-02-10T08:20:22.663Z,21.87
2019-02-10T08:23:10.891Z,22.00
2019-02-10T08:26:07.924Z,22.50
2019-02-10T08:29:06.819Z,22.20
2019-02-10T08:32:35.559Z,24.07
2019-02-10T08:35:34.313Z,20.80
2019-02-10T08:38:14.456Z,22.50
2019-02-10T08:41:11.543Z,22.67
2019-02-10T08:44:29.095Z,22.43
2019-02-10T08:47:33.567Z,20.93
2019-02-10T08:50:23.255Z,20.83
2019-02-10T08:52:59.487Z,22.47
2019-02-10T08:55:28.663Z,21.67
2019-02-10T08:57:57.848Z,21.43
2019-02-10T09:00:26.654Z,21.40
2019-02-10T09:02:55.408Z,20.97
2019-02-10T09:05:24.179Z,21.47
2019-02-10T09:07:53.430Z,21.93
2019-02-10T09:10:22.214Z,21.90
2019-02-10T09:12:50.992Z,22.73
2019-02-10T09:15:19.875Z,21.20
2019-02-10T09:17:48.683Z,21.33
2019-02-10T09:20:17.612Z,22.07
2019-02-10T09:22:46.579Z,21.67
2019-02-10T09:25:15.466Z,21.67
2019-02-10T09:27:44.663Z,21.63
2019-02-10T09:30:13.592Z,21.33
2019-02-10T09:32:42.707Z,21.60
2019-02-10T09:35:11.727Z,20.80
2019-02-10T09:37:40.524Z,21.97
2019-02-10T09:40:10.357Z,21.23
2019-02-10T09:42:39.152Z,21.37
2019-02-10T09:45:10.555Z,20.73
2019-02-10T09:47:39.850Z,20.70
2019-02-10T09:50:11.804Z,21.70
2019-02-10T09:52:41.237Z,21.00
2019-02-10T09:55:10.210Z,22.30
2019-02-10T09:57:39.194Z,21.40
2019-02-10T10:00:10.770Z,21.37
2019-02-10T10:02:39.795Z,20.30
2019-02-10T10:05:09.623Z,21.00
2019-02-10T10:07:38.462Z,21.40
2019-02-10T10:10:09.094Z,22.20
2019-02-10T10:12:37.966Z,21.20
2019-02-10T10:15:08.425Z,21.73
2019-02-10T10:17:37.575Z,20.93
2019-02-10T10:20:08.301Z,21.00
2019-02-10T10:22:37.138Z,21.93
2019-02-10T10:25:06.315Z,22.00
2019-02-10T10:27:35.780Z,21.77
2019-02-10T10:30:05.958Z,21.13
2019-02-10T10:32:34.864Z,21.43
2019-02-10T10:35:03.789Z,21.27
2019-02-10T10:37:32.867Z,21.93
2019-02-10T10:40:02.013Z,21.23
2019-02-10T10:42:30.934Z,21.90
2019-02-10T10:44:59.946Z,22.80
2019-02-10T10:47:29.300Z,20.97
2019-02-10T10:49:58.187Z,21.10
2019-02-10T10:52:27.590Z,21.00
2019-02-10T10:54:56.809Z,21.00
2019-02-10T10:57:25.830Z,22.27
2019-02-10T10:59:55.593Z,21.10
2019-02-10T11:02:24.695Z,21.70
2019-02-10T11:04:53.785Z,20.83
2019-02-10T11:07:22.642Z,22.80
2019-02-10T11:09:51.579Z,23.50
2019-02-10T11:12:20.997Z,22.30
2019-02-10T11:14:49.948Z,21.83
2019-02-10T11:17:19.102Z,21.53
2019-02-10T11:19:48.276Z,20.87
2019-02-10T11:22:17.437Z,21.70
2019-02-10T11:24:46.331Z,26.50
2019-02-10T11:27:15.191Z,21.87
2019-02-10T11:29:44.107Z,21.70
2019-02-10T11:32:13.193Z,23.97
2019-02-10T11:34:46.297Z,22.10
2019-02-10T11:37:12.569Z,20.73
2019-02-10T11:39:43.736Z,21.20
2019-02-10T11:42:12.236Z,20.83
2019-02-10T11:44:41.111Z,22.00
2019-02-10T11:47:09.999Z,21.93
2019-02-10T11:49:38.922Z,21.37
2019-02-10T11:52:07.978Z,20.97
2019-02-10T11:54:36.775Z,20.73
2019-02-10T11:57:05.663Z,20.47
2019-02-10T11:59:34.782Z,20.80
2019-02-10T12:02:03.833Z,21.43
2019-02-10T12:04:32.780Z,20.77
2019-02-10T12:07:01.621Z,22.10
2019-02-10T12:09:30.957Z,21.17
2019-02-10T12:11:59.942Z,21.20
2019-02-10T12:14:28.824Z,22.17
2019-02-10T12:16:57.670Z,21.97
2019-02-10T12:19:26.608Z,21.17
2019-02-10T12:21:55.557Z,21.67
2019-02-10T12:24:24.488Z,21.83
2019-02-10T12:26:53.506Z,21.30
2019-02-10T12:29:22.431Z,20.80
2019-02-10T12:31:51.339Z,20.90
2019-02-10T12:34:20.479Z,20.93
2019-02-10T12:36:49.648Z,20.20
2019-02-10T12:39:18.519Z,21.13
2019-02-10T12:41:47.762Z,21.07
2019-02-10T12:44:17.172Z,21.30
2019-02-10T12:46:46.764Z,21.67
2019-02-10T12:49:15.808Z,21.17
2019-02-10T12:51:44.850Z,21.00
2019-02-10T12:54:13.744Z,22.47
2019-02-10T12:56:42.582Z,22.23
2019-02-10T12:59:11.451Z,20.90
2019-02-10T13:01:40.601Z,21.70
2019-02-10T13:04:09.603Z,22.83
2019-02-10T13:06:38.686Z,21.13
2019-02-10T13:09:10.271Z,21.40
2019-02-10T13:11:39.140Z,20.90
2019-02-10T13:14:08.034Z,21.50
2019-02-10T13:16:37.132Z,21.57
2019-02-10T13:19:05.979Z,21.63
2019-02-10T13:21:35.485Z,21.07
2019-02-10T13:24:05.172Z,22.60
2019-02-10T13:26:34.092Z,22.80
2019-02-10T13:29:02.935Z,21.60
2019-02-10T13:31:31.724Z,22.73
2019-02-10T13:34:00.531Z,21.70
2019-02-10T13:36:29.308Z,22.20
2019-02-10T13:38:58.707Z,22.57
2019-02-10T13:41:34.702Z,22.47
2019-02-10T13:44:04.754Z,22.20
2019-02-10T13:46:34.109Z,22.47
2019-02-10T13:49:02.995Z,22.80
2019-02-10T13:51:31.896Z,22.03
2019-02-10T13:54:01.167Z,23.27
2019-02-10T13:56:30.340Z,22.00
2019-02-10T13:58:59.142Z,21.60
2019-02-10T14:01:28.085Z,24.10
2019-02-10T14:03:56.972Z,22.07
2019-02-10T14:06:25.842Z,22.40
2019-02-10T14:08:54.818Z,22.30
2019-02-10T14:11:23.845Z,23.23
2019-02-10T14:13:54.483Z,22.67
2019-02-10T14:16:23.285Z,23.27
2019-02-10T14:18:52.265Z,23.60
2019-02-10T14:21:21.214Z,22.33
2019-02-10T14:23:50.197Z,21.93
2019-02-10T14:26:19.060Z,23.30
2019-02-10T14:28:48.317Z,23.37
2019-02-10T14:31:19.992Z,22.80
2019-02-10T14:33:48.863Z,22.70
2019-02-10T14:36:17.982Z,22.63
2019-02-10T14:38:46.735Z,23.63
2019-02-10T14:41:15.558Z,22.47
2019-02-10T14:43:44.374Z,23.17
2019-02-10T14:46:13.602Z,24.50
2019-02-10T14:48:42.701Z,22.73
2019-02-10T14:51:11.526Z,22.40
2019-02-10T14:53:40.368Z,23.50
2019-02-10T14:56:09.519Z,23.13
2019-02-10T14:58:43.188Z,22.23
2019-02-10T15:01:10.523Z,22.70
2019-02-10T15:03:39.415Z,22.67
2019-02-10T15:06:08.300Z,22.37
2019-02-10T15:08:37.168Z,22.40
2019-02-10T15:11:06.280Z,23.60
2019-02-10T15:13:35.110Z,22.73
2019-02-10T15:16:03.893Z,22.17
2019-02-10T15:18:32.721Z,22.60
2019-02-10T15:21:01.656Z,22.10
2019-02-10T15:23:31.375Z,23.00
2019-02-10T15:26:00.332Z,22.60
2019-02-10T15:28:29.296Z,23.73
2019-02-10T15:30:58.184Z,22.57
2019-02-10T15:33:27.113Z,21.50
2019-02-10T15:35:56.046Z,22.57
2019-02-10T15:38:24.956Z,22.10
2019-02-10T15:40:53.743Z,23.07
2019-02-10T15:43:22.609Z,22.63
2019-02-10T15:45:51.403Z,22.20
2019-02-10T15:48:20.202Z,23.23
2019-02-10T15:50:50.075Z,22.17
2019-02-10T15:53:18.939Z,22.20
2019-02-10T15:55:47.655Z,21.57
2019-02-10T15:58:16.495Z,21.17
2019-02-10T16:00:45.845Z,21.70
2019-02-10T16:03:14.803Z,22.20
2019-02-10T16:05:43.755Z,21.70
2019-02-10T16:08:12.872Z,22.47
2019-02-10T16:10:41.867Z,22.47
2019-02-10T16:13:10.820Z,23.30
2019-02-10T16:15:39.610Z,23.43
2019-02-10T16:18:08.438Z,22.40
2019-02-10T16:20:37.371Z,23.33
2019-02-10T16:23:06.217Z,22.97
2019-02-10T16:25:35.234Z,22.80
2019-02-10T16:28:04.361Z,22.20
2019-02-10T16:30:33.518Z,22.70
2019-02-10T16:33:02.620Z,22.00
2019-02-10T16:35:31.375Z,22.43
2019-02-10T16:38:00.378Z,22.10
2019-02-10T16:40:29.328Z,21.83
2019-02-10T16:42:58.231Z,22.10
2019-02-10T16:45:27.147Z,22.20
2019-02-10T16:47:56.471Z,21.90
2019-02-10T16:50:25.520Z,20.67
2019-02-10T16:52:54.434Z,21.60
2019-02-10T16:55:23.671Z,21.33
2019-02-10T16:57:54.197Z,21.90
2019-02-10T17:00:23.618Z,21.73
2019-02-10T17:02:52.819Z,22.00
2019-02-10T17:05:22.464Z,22.53
2019-02-10T17:07:51.440Z,22.70
2019-02-10T17:10:20.437Z,23.20
2019-02-10T17:12:49.330Z,22.77
2019-02-10T17:15:18.182Z,23.27
2019-02-10T17:17:48.051Z,21.90
2019-02-10T17:20:18.423Z,22.30
2019-02-10T17:22:47.989Z,23.17
2019-02-10T17:25:17.356Z,22.60
2019-02-10T17:27:46.822Z,22.50
2019-02-10T17:30:15.984Z,22.10
2019-02-10T17:32:45.115Z,21.10
2019-02-10T17:35:14.097Z,22.10
2019-02-10T17:37:43.336Z,21.80
2019-02-10T17:40:16.401Z,21.70
2019-02-10T17:42:45.535Z,21.90
2019-02-10T17:45:14.450Z,21.10
2019-02-10T17:47:43.455Z,21.93
2019-02-10T17:50:12.676Z,23.40
2019-02-10T17:52:41.647Z,22.30
2019-02-10T17:55:10.675Z,22.20
2019-02-10T17:57:39.792Z,22.20
2019-02-10T18:00:09.826Z,22.50
2019-02-10T18:02:38.692Z,22.30
2019-02-10T18:05:08.040Z,22.70
2019-02-10T18:07:37.146Z,23.10
2019-02-10T18:10:07.432Z,21.20
2019-02-10T18:12:36.514Z,21.53
2019-02-10T18:15:23.664Z,21.73
2019-02-10T18:18:11.238Z,22.40
2019-02-10T18:21:12.023Z,21.00
2019-02-10T18:23:57.934Z,21.27
2019-02-10T18:26:55.030Z,21.90
2019-02-10T18:29:36.565Z,20.63
2019-02-10T18:32:15.876Z,20.47
2019-02-10T18:34:55.702Z,20.20
2019-02-10T18:37:31.495Z,20.10
2019-02-10T18:40:34.838Z,21.00
2019-02-10T18:43:10.558Z,20.90
2019-02-10T18:45:44.978Z,20.10
2019-02-10T18:48:30.632Z,20.63
2019-02-10T18:51:11.091Z,20.20
2019-02-10T18:53:57.999Z,20.77
2019-02-10T18:56:42.570Z,19.57
2019-02-10T18:59:46.052Z,20.10
2019-02-10T19:02:43.221Z,20.57
2019-02-10T19:05:27.550Z,20.30
2019-02-10T19:08:14.377Z,20.30
2019-02-10T19:10:55.166Z,20.37
2019-02-10T19:13:35.523Z,20.10
2019-02-10T19:16:23.185Z,20.07
2019-02-10T19:19:05.652Z,20.00
2019-02-10T19:21:47.428Z,20.20
2019-02-10T19:24:22.486Z,19.83
2019-02-10T19:27:06.911Z,19.90
2019-02-10T19:29:45.122Z,20.00
2019-02-10T19:32:38.961Z,19.80
2019-02-10T19:35:20.449Z,20.03
2019-02-10T19:38:11.915Z,20.00
2019-02-10T19:40:50.430Z,19.50
2019-02-10T19:43:41.588Z,20.47
2019-02-10T19:46:34.118Z,19.87
2019-02-10T19:49:12.744Z,20.00
2019-02-10T19:51:51.828Z,19.40
2019-02-10T19:54:29.318Z,19.63
2019-02-10T19:57:26.203Z,19.40
2019-02-10T20:00:26.383Z,19.40
2019-02-10T20:03:13.348Z,19.67
2019-02-10T20:05:49.512Z,19.30
2019-02-10T20:08:37.510Z,19.37
2019-02-10T20:11:16.903Z,19.63
2019-02-10T20:14:04.830Z,19.60
2019-02-10T20:16:46.724Z,19.23
2019-02-10T20:19:34.468Z,19.33
2019-02-10T20:22:28.327Z,18.63
2019-02-10T20:25:10.324Z,19.50
2019-02-10T20:28:04.782Z,19.03
2019-02-10T20:30:55.740Z,18.90
2019-02-10T20:33:36.383Z,19.00
2019-02-10T20:36:16.144Z,18.70
2019-02-10T20:38:59.704Z,19.40
2019-02-10T20:41:51.749Z,19.03
2019-02-10T20:44:38.686Z,19.20
2019-02-10T20:47:15.874Z,18.80
2019-02-10T20:50:02.757Z,18.20
2019-02-10T20:52:53.755Z,18.80
2019-02-10T20:55:31.426Z,18.90
2019-02-10T20:58:06.246Z,19.20
2019-02-10T21:00:53.009Z,18.70
2019-02-10T21:03:43.731Z,18.67
2019-02-10T21:06:31.428Z,18.83
2019-02-10T21:09:17.454Z,18.13
2019-02-10T21:11:57.133Z,19.50
2019-02-10T21:14:31.364Z,19.70
2019-02-10T21:17:16.174Z,18.50
2019-02-10T21:20:11.725Z,19.17
2019-02-10T21:23:05.556Z,18.43
2019-02-10T21:25:41.557Z,19.20
2019-02-10T21:28:20.052Z,18.80
2019-02-10T21:31:09.402Z,19.33
2019-02-10T21:33:56.668Z,19.10
2019-02-10T21:36:34.481Z,19.10
2019-02-10T21:39:18.821Z,19.10
2019-02-10T21:41:56.520Z,19.13
2019-02-10T21:44:37.990Z,18.70
2019-02-10T21:47:11.543Z,18.90
2019-02-10T21:49:40.298Z,19.50
2019-02-10T21:52:09.246Z,18.60
2019-02-10T21:54:38.014Z,18.53
2019-02-10T21:57:07.115Z,18.90
2019-02-10T21:59:35.932Z,18.60
2019-02-10T22:02:05.103Z,18.93
2019-02-10T22:04:33.903Z,19.00
2019-02-10T22:07:03.155Z,18.80
2019-02-10T22:09:32.364Z,18.33
2019-02-10T22:12:01.210Z,18.37
2019-02-10T22:14:29.954Z,18.27
2019-02-10T22:16:58.881Z,18.13
2019-02-10T22:19:27.957Z,17.30
2019-02-10T22:21:56.883Z,18.03
2019-02-10T22:24:25.844Z,17.77
2019-02-10T22:26:54.648Z,18.60
2019-02-10T22:29:23.491Z,18.70
2019-02-10T22:31:52.659Z,18.30
2019-02-10T22:34:21.576Z,18.10
2019-02-10T22:36:50.283Z,17.60
2019-02-10T22:39:19.266Z,17.23
2019-02-10T22:41:48.224Z,17.80
2019-02-10T22:44:17.993Z,17.83
2019-02-10T22:46:47.158Z,17.60
2019-02-10T22:49:16.027Z,17.90
2019-02-10T22:51:44.900Z,17.40
2019-02-10T22:54:13.908Z,17.83
2019-02-10T22:56:43.099Z,17.90
2019-02-10T22:59:12.160Z,18.47
2019-02-10T23:01:40.996Z,18.20
2019-02-10T23:04:09.885Z,18.10
2019-02-10T23:06:38.823Z,17.40
2019-02-10T23:09:13.693Z,18.10
2019-02-10T23:11:42.494Z,17.70
2019-02-10T23:14:11.602Z,18.33
2019-02-10T23:16:40.469Z,17.30
2019-02-10T23:19:09.394Z,18.40
2019-02-10T23:21:38.551Z,17.87
2019-02-10T23:24:07.938Z,18.60
2019-02-10T23:26:36.769Z,17.70
2019-02-10T23:29:05.645Z,17.40
2019-02-10T23:31:34.797Z,18.20
2019-02-10T23:34:03.675Z,17.23
2019-02-10T23:36:32.595Z,18.00
2019-02-10T23:39:02.083Z,17.50
2019-02-10T23:41:31.021Z,18.17
2019-02-10T23:44:00.192Z,17.80
2019-02-10T23:46:29.511Z,17.50
2019-02-10T23:48:58.316Z,18.10
2019-02-10T23:51:27.110Z,18.00
2019-02-10T23:53:56.370Z,17.40
2019-02-10T23:56:25.458Z,18.00
2019-02-10T23:58:54.294Z,18.17
